sensor_id;sensor_type;location;lat;lon;timestamp;P1;durP1;ratioP1;P2;durP2;ratioP2
47413;SDS011;33163;0.000;0.000;2023-02-15T00:01:52;17.25;;;11.10;;
47413;SDS011;33163;0.000;0.000;2023-02-15T00:04:20;17.52;;;10.55;;
47413;SDS011;33163;0.000;0.000;2023-02-15T00:06:49;14.40;;;10.45;;
47413;SDS011;33163;0.000;0.000;2023-02-15T00:09:17;13.98;;;10.10;;
47413;SDS011;33163;0.000;0.000;2023-02-15T00:11:44;15.43;;;10.60;;
47413;SDS011;33163;0.000;0.000;2023-02-15T00:14:15;17.48;;;11.23;;
47413;SDS011;33163;0.000;0.000;2023-02-15T00:16:44;16.30;;;10.52;;
47413;SDS011;33163;0.000;0.000;2023-02-15T00:19:12;17.35;;;11.05;;
47413;SDS011;33163;0.000;0.000;2023-02-15T00:21:40;16.00;;;10.75;;
47413;SDS011;33163;0.000;0.000;2023-02-15T00:24:09;15.50;;;10.70;;
47413;SDS011;33163;0.000;0.000;2023-02-15T00:26:38;16.63;;;9.65;;
47413;SDS011;33163;0.000;0.000;2023-02-15T00:29:07;14.15;;;10.18;;
47413;SDS011;33163;0.000;0.000;2023-02-15T00:31:35;12.95;;;9.98;;
47413;SDS011;33163;0.000;0.000;2023-02-15T00:34:03;14.15;;;9.40;;
47413;SDS011;33163;0.000;0.000;2023-02-15T00:36:33;13.27;;;9.82;;
47413;SDS011;33163;0.000;0.000;2023-02-15T00:39:00;12.23;;;9.23;;
47413;SDS011;33163;0.000;0.000;2023-02-15T00:41:26;13.77;;;9.40;;
47413;SDS011;33163;0.000;0.000;2023-02-15T00:43:54;12.30;;;8.90;;
47413;SDS011;33163;0.000;0.000;2023-02-15T00:46:21;13.25;;;9.40;;
47413;SDS011;33163;0.000;0.000;2023-02-15T00:48:48;14.75;;;9.77;;
47413;SDS011;33163;0.000;0.000;2023-02-15T00:51:17;13.82;;;9.23;;
47413;SDS011;33163;0.000;0.000;2023-02-15T00:53:45;13.48;;;10.30;;
47413;SDS011;33163;0.000;0.000;2023-02-15T00:56:12;14.30;;;8.82;;
47413;SDS011;33163;0.000;0.000;2023-02-15T00:58:39;14.05;;;9.45;;
47413;SDS011;33163;0.000;0.000;2023-02-15T01:01:08;11.13;;;8.38;;
47413;SDS011;33163;0.000;0.000;2023-02-15T01:03:36;14.60;;;10.00;;
47413;SDS011;33163;0.000;0.000;2023-02-15T01:06:07;14.32;;;9.20;;
47413;SDS011;33163;0.000;0.000;2023-02-15T01:08:34;10.98;;;8.65;;
47413;SDS011;33163;0.000;0.000;2023-02-15T01:11:02;13.90;;;9.00;;
47413;SDS011;33163;0.000;0.000;2023-02-15T01:13:31;11.45;;;8.20;;
47413;SDS011;33163;0.000;0.000;2023-02-15T01:15:58;13.35;;;9.02;;
47413;SDS011;33163;0.000;0.000;2023-02-15T01:18:26;11.90;;;8.30;;
47413;SDS011;33163;0.000;0.000;2023-02-15T01:20:55;13.98;;;8.98;;
47413;SDS011;33163;0.000;0.000;2023-02-15T01:23:22;13.65;;;9.10;;
47413;SDS011;33163;0.000;0.000;2023-02-15T01:25:49;14.57;;;9.65;;
47413;SDS011;33163;0.000;0.000;2023-02-15T01:28:16;11.85;;;9.13;;
47413;SDS011;33163;0.000;0.000;2023-02-15T01:30:42;11.32;;;8.45;;
47413;SDS011;33163;0.000;0.000;2023-02-15T01:33:09;12.18;;;9.15;;
47413;SDS011;33163;0.000;0.000;2023-02-15T01:35:43;14.63;;;8.88;;
47413;SDS011;33163;0.000;0.000;2023-02-15T01:38:11;12.93;;;9.07;;
47413;SDS011;33163;0.000;0.000;2023-02-15T01:40:38;15.32;;;9.10;;
47413;SDS011;33163;0.000;0.000;2023-02-15T01:43:07;13.93;;;9.40;;
47413;SDS011;33163;0.000;0.000;2023-02-15T01:45:36;15.48;;;9.80;;
47413;SDS011;33163;0.000;0.000;2023-02-15T01:48:05;15.45;;;10.18;;
47413;SDS011;33163;0.000;0.000;2023-02-15T01:50:44;12.15;;;8.68;;
47413;SDS011;33163;0.000;0.000;2023-02-15T01:53:16;15.95;;;10.27;;
47413;SDS011;33163;0.000;0.000;2023-02-15T01:55:47;13.85;;;9.50;;
47413;SDS011;33163;0.000;0.000;2023-02-15T01:58:19;13.75;;;9.15;;
47413;SDS011;33163;0.000;0.000;2023-02-15T02:00:48;15.65;;;9.40;;
47413;SDS011;33163;0.000;0.000;2023-02-15T02:03:15;12.68;;;9.80;;
47413;SDS011;33163;0.000;0.000;2023-02-15T02:05:41;14.60;;;10.07;;
47413;SDS011;33163;0.000;0.000;2023-02-15T02:08:10;14.15;;;9.60;;
47413;SDS011;33163;0.000;0.000;2023-02-15T02:10:37;15.10;;;9.25;;
47413;SDS011;33163;0.000;0.000;2023-02-15T02:13:04;14.55;;;9.15;;
47413;SDS011;33163;0.000;0.000;2023-02-15T02:15:33;16.25;;;10.23;;
47413;SDS011;33163;0.000;0.000;2023-02-15T02:18:10;14.37;;;9.90;;
47413;SDS011;33163;0.000;0.000;2023-02-15T02:20:58;12.80;;;9.75;;
47413;SDS011;33163;0.000;0.000;2023-02-15T02:24:14;14.55;;;10.20;;
47413;SDS011;33163;0.000;0.000;2023-02-15T02:33:11;14.45;;;9.90;;
47413;SDS011;33163;0.000;0.000;2023-02-15T02:35:56;13.82;;;10.13;;
47413;SDS011;33163;0.000;0.000;2023-02-15T02:38:32;14.77;;;9.73;;
47413;SDS011;33163;0.000;0.000;2023-02-15T02:41:10;13.45;;;9.00;;
47413;SDS011;33163;0.000;0.000;2023-02-15T02:43:44;16.60;;;10.73;;
47413;SDS011;33163;0.000;0.000;2023-02-15T02:46:19;15.85;;;10.40;;
47413;SDS011;33163;0.000;0.000;2023-02-15T02:48:49;13.52;;;9.93;;
47413;SDS011;33163;0.000;0.000;2023-02-15T02:51:16;12.13;;;9.73;;
47413;SDS011;33163;0.000;0.000;2023-02-15T02:53:47;15.63;;;9.73;;
47413;SDS011;33163;0.000;0.000;2023-02-15T02:56:23;11.68;;;8.52;;
47413;SDS011;33163;0.000;0.000;2023-02-15T02:58:54;11.68;;;8.60;;
47413;SDS011;33163;0.000;0.000;2023-02-15T03:01:29;14.32;;;9.05;;
47413;SDS011;33163;0.000;0.000;2023-02-15T03:04:00;12.85;;;9.13;;
47413;SDS011;33163;0.000;0.000;2023-02-15T03:06:33;15.50;;;10.15;;
47413;SDS011;33163;0.000;0.000;2023-02-15T03:09:06;12.75;;;9.85;;
47413;SDS011;33163;0.000;0.000;2023-02-15T03:11:39;13.20;;;9.00;;
47413;SDS011;33163;0.000;0.000;2023-02-15T03:14:07;12.07;;;9.82;;
47413;SDS011;33163;0.000;0.000;2023-02-15T03:16:34;14.38;;;8.93;;
47413;SDS011;33163;0.000;0.000;2023-02-15T03:19:05;15.35;;;10.48;;
47413;SDS011;33163;0.000;0.000;2023-02-15T03:21:36;14.07;;;9.65;;
47413;SDS011;33163;0.000;0.000;2023-02-15T03:24:07;14.00;;;10.48;;
47413;SDS011;33163;0.000;0.000;2023-02-15T03:26:36;13.32;;;9.20;;
47413;SDS011;33163;0.000;0.000;2023-02-15T03:29:05;12.07;;;9.00;;
47413;SDS011;33163;0.000;0.000;2023-02-15T03:31:35;13.35;;;9.82;;
47413;SDS011;33163;0.000;0.000;2023-02-15T03:34:10;13.30;;;9.20;;
47413;SDS011;33163;0.000;0.000;2023-02-15T03:36:40;14.75;;;10.23;;
47413;SDS011;33163;0.000;0.000;2023-02-15T03:39:12;15.85;;;10.50;;
47413;SDS011;33163;0.000;0.000;2023-02-15T03:41:46;14.50;;;9.88;;
47413;SDS011;33163;0.000;0.000;2023-02-15T03:44:22;15.15;;;8.98;;
47413;SDS011;33163;0.000;0.000;2023-02-15T03:46:54;12.57;;;9.00;;
47413;SDS011;33163;0.000;0.000;2023-02-15T03:49:27;13.07;;;9.00;;
47413;SDS011;33163;0.000;0.000;2023-02-15T03:51:59;11.38;;;9.13;;
47413;SDS011;33163;0.000;0.000;2023-02-15T03:54:28;14.98;;;9.23;;
47413;SDS011;33163;0.000;0.000;2023-02-15T03:57:13;14.25;;;9.73;;
47413;SDS011;33163;0.000;0.000;2023-02-15T03:59:59;11.40;;;8.95;;
47413;SDS011;33163;0.000;0.000;2023-02-15T04:02:52;12.45;;;9.38;;
47413;SDS011;33163;0.000;0.000;2023-02-15T04:05:31;12.93;;;9.50;;
47413;SDS011;33163;0.000;0.000;2023-02-15T04:07:57;14.15;;;10.35;;
47413;SDS011;33163;0.000;0.000;2023-02-15T04:10:24;12.95;;;9.23;;
47413;SDS011;33163;0.000;0.000;2023-02-15T04:13:09;12.90;;;9.27;;
47413;SDS011;33163;0.000;0.000;2023-02-15T04:15:35;13.73;;;9.90;;
47413;SDS011;33163;0.000;0.000;2023-02-15T04:18:20;12.50;;;9.02;;
47413;SDS011;33163;0.000;0.000;2023-02-15T04:20:48;13.98;;;9.85;;
47413;SDS011;33163;0.000;0.000;2023-02-15T04:23:32;13.73;;;9.70;;
47413;SDS011;33163;0.000;0.000;2023-02-15T04:26:16;12.05;;;9.20;;
47413;SDS011;33163;0.000;0.000;2023-02-15T04:28:43;16.48;;;9.30;;
47413;SDS011;33163;0.000;0.000;2023-02-15T04:31:10;13.63;;;9.50;;
47413;SDS011;33163;0.000;0.000;2023-02-15T04:33:36;12.18;;;9.23;;
47413;SDS011;33163;0.000;0.000;2023-02-15T04:36:05;13.43;;;9.98;;
47413;SDS011;33163;0.000;0.000;2023-02-15T04:38:31;13.27;;;9.48;;
47413;SDS011;33163;0.000;0.000;2023-02-15T04:40:58;12.13;;;9.02;;
47413;SDS011;33163;0.000;0.000;2023-02-15T04:43:25;14.40;;;9.82;;
47413;SDS011;33163;0.000;0.000;2023-02-15T04:45:52;13.23;;;8.95;;
47413;SDS011;33163;0.000;0.000;2023-02-15T04:48:19;11.82;;;8.77;;
47413;SDS011;33163;0.000;0.000;2023-02-15T04:50:45;13.13;;;9.27;;
47413;SDS011;33163;0.000;0.000;2023-02-15T04:53:13;12.77;;;9.20;;
47413;SDS011;33163;0.000;0.000;2023-02-15T04:55:42;13.70;;;9.27;;
47413;SDS011;33163;0.000;0.000;2023-02-15T04:58:09;12.75;;;9.15;;
47413;SDS011;33163;0.000;0.000;2023-02-15T05:00:35;11.05;;;8.77;;
47413;SDS011;33163;0.000;0.000;2023-02-15T05:03:02;11.98;;;8.93;;
47413;SDS011;33163;0.000;0.000;2023-02-15T05:05:32;13.27;;;9.50;;
47413;SDS011;33163;0.000;0.000;2023-02-15T05:07:58;13.98;;;9.82;;
47413;SDS011;33163;0.000;0.000;2023-02-15T05:10:26;12.75;;;8.55;;
47413;SDS011;33163;0.000;0.000;2023-02-15T05:12:53;10.02;;;7.90;;
47413;SDS011;33163;0.000;0.000;2023-02-15T05:15:20;13.57;;;9.75;;
47413;SDS011;33163;0.000;0.000;2023-02-15T05:17:47;11.25;;;8.38;;
47413;SDS011;33163;0.000;0.000;2023-02-15T05:20:13;12.20;;;8.93;;
47413;SDS011;33163;0.000;0.000;2023-02-15T05:22:40;12.18;;;8.70;;
47413;SDS011;33163;0.000;0.000;2023-02-15T05:25:08;13.25;;;9.60;;
47413;SDS011;33163;0.000;0.000;2023-02-15T05:28:09;13.68;;;8.18;;
47413;SDS011;33163;0.000;0.000;2023-02-15T05:30:48;12.15;;;8.57;;
47413;SDS011;33163;0.000;0.000;2023-02-15T05:33:18;11.40;;;8.85;;
47413;SDS011;33163;0.000;0.000;2023-02-15T05:35:44;14.68;;;9.65;;
47413;SDS011;33163;0.000;0.000;2023-02-15T05:38:11;16.35;;;9.02;;
47413;SDS011;33163;0.000;0.000;2023-02-15T05:40:38;12.20;;;8.35;;
47413;SDS011;33163;0.000;0.000;2023-02-15T05:43:05;11.63;;;8.77;;
47413;SDS011;33163;0.000;0.000;2023-02-15T05:45:33;12.50;;;9.00;;
47413;SDS011;33163;0.000;0.000;2023-02-15T05:47:59;15.95;;;9.20;;
47413;SDS011;33163;0.000;0.000;2023-02-15T05:50:26;11.43;;;8.88;;
47413;SDS011;33163;0.000;0.000;2023-02-15T05:52:53;10.05;;;7.85;;
47413;SDS011;33163;0.000;0.000;2023-02-15T05:55:20;13.00;;;9.07;;
47413;SDS011;33163;0.000;0.000;2023-02-15T05:57:48;11.38;;;8.73;;
47413;SDS011;33163;0.000;0.000;2023-02-15T06:00:15;12.32;;;8.75;;
47413;SDS011;33163;0.000;0.000;2023-02-15T06:02:43;15.00;;;8.30;;
47413;SDS011;33163;0.000;0.000;2023-02-15T06:05:11;12.38;;;8.43;;
47413;SDS011;33163;0.000;0.000;2023-02-15T06:07:38;11.13;;;7.75;;
47413;SDS011;33163;0.000;0.000;2023-02-15T06:10:05;12.38;;;8.43;;
47413;SDS011;33163;0.000;0.000;2023-02-15T06:12:32;11.55;;;8.32;;
47413;SDS011;33163;0.000;0.000;2023-02-15T06:14:59;11.52;;;8.23;;
47413;SDS011;33163;0.000;0.000;2023-02-15T06:17:26;11.98;;;7.88;;
47413;SDS011;33163;0.000;0.000;2023-02-15T06:19:54;12.98;;;8.18;;
47413;SDS011;33163;0.000;0.000;2023-02-15T06:22:21;12.23;;;8.05;;
47413;SDS011;33163;0.000;0.000;2023-02-15T06:24:48;11.57;;;7.50;;
47413;SDS011;33163;0.000;0.000;2023-02-15T06:27:14;10.35;;;8.40;;
47413;SDS011;33163;0.000;0.000;2023-02-15T06:29:41;11.63;;;8.52;;
47413;SDS011;33163;0.000;0.000;2023-02-15T06:32:08;12.50;;;8.30;;
47413;SDS011;33163;0.000;0.000;2023-02-15T06:34:35;11.20;;;8.07;;
47413;SDS011;33163;0.000;0.000;2023-02-15T06:37:04;12.80;;;9.10;;
47413;SDS011;33163;0.000;0.000;2023-02-15T06:39:33;12.77;;;8.52;;
47413;SDS011;33163;0.000;0.000;2023-02-15T06:41:59;14.30;;;9.02;;
47413;SDS011;33163;0.000;0.000;2023-02-15T06:44:35;14.25;;;7.90;;
47413;SDS011;33163;0.000;0.000;2023-02-15T06:47:02;13.48;;;8.65;;
47413;SDS011;33163;0.000;0.000;2023-02-15T06:49:29;11.70;;;8.35;;
47413;SDS011;33163;0.000;0.000;2023-02-15T06:51:55;11.38;;;7.85;;
47413;SDS011;33163;0.000;0.000;2023-02-15T06:54:24;13.95;;;8.13;;
47413;SDS011;33163;0.000;0.000;2023-02-15T06:56:50;11.02;;;7.65;;
47413;SDS011;33163;0.000;0.000;2023-02-15T06:59:17;12.30;;;8.50;;
47413;SDS011;33163;0.000;0.000;2023-02-15T07:01:44;10.45;;;7.93;;
47413;SDS011;33163;0.000;0.000;2023-02-15T07:04:10;13.95;;;8.52;;
47413;SDS011;33163;0.000;0.000;2023-02-15T07:06:38;14.65;;;9.00;;
47413;SDS011;33163;0.000;0.000;2023-02-15T07:09:05;15.57;;;8.75;;
47413;SDS011;33163;0.000;0.000;2023-02-15T07:11:33;14.57;;;8.70;;
47413;SDS011;33163;0.000;0.000;2023-02-15T07:14:18;16.38;;;9.07;;
47413;SDS011;33163;0.000;0.000;2023-02-15T07:16:44;14.88;;;9.27;;
47413;SDS011;33163;0.000;0.000;2023-02-15T07:19:11;14.68;;;8.52;;
47413;SDS011;33163;0.000;0.000;2023-02-15T07:21:38;14.70;;;9.38;;
47413;SDS011;33163;0.000;0.000;2023-02-15T07:24:05;12.23;;;8.98;;
47413;SDS011;33163;0.000;0.000;2023-02-15T07:26:34;13.95;;;8.68;;
47413;SDS011;33163;0.000;0.000;2023-02-15T07:29:00;12.90;;;8.27;;
47413;SDS011;33163;0.000;0.000;2023-02-15T07:31:27;17.90;;;8.98;;
47413;SDS011;33163;0.000;0.000;2023-02-15T07:33:54;13.18;;;9.35;;
47413;SDS011;33163;0.000;0.000;2023-02-15T07:36:21;13.70;;;8.80;;
47413;SDS011;33163;0.000;0.000;2023-02-15T07:38:48;15.57;;;8.82;;
47413;SDS011;33163;0.000;0.000;2023-02-15T07:41:15;13.88;;;9.63;;
47413;SDS011;33163;0.000;0.000;2023-02-15T07:43:44;12.18;;;8.52;;
47413;SDS011;33163;0.000;0.000;2023-02-15T07:46:12;14.50;;;8.93;;
47413;SDS011;33163;0.000;0.000;2023-02-15T07:48:40;13.57;;;8.80;;
47413;SDS011;33163;0.000;0.000;2023-02-15T07:51:08;12.95;;;8.23;;
47413;SDS011;33163;0.000;0.000;2023-02-15T07:53:36;14.40;;;9.00;;
47413;SDS011;33163;0.000;0.000;2023-02-15T07:56:04;15.05;;;9.23;;
47413;SDS011;33163;0.000;0.000;2023-02-15T07:58:32;14.32;;;9.77;;
47413;SDS011;33163;0.000;0.000;2023-02-15T08:01:19;16.48;;;9.23;;
47413;SDS011;33163;0.000;0.000;2023-02-15T08:03:47;14.48;;;8.25;;
47413;SDS011;33163;0.000;0.000;2023-02-15T08:06:14;15.80;;;8.63;;
47413;SDS011;33163;0.000;0.000;2023-02-15T08:08:41;15.07;;;9.18;;
47413;SDS011;33163;0.000;0.000;2023-02-15T08:11:13;12.25;;;9.43;;
47413;SDS011;33163;0.000;0.000;2023-02-15T08:13:52;12.55;;;9.23;;
47413;SDS011;33163;0.000;0.000;2023-02-15T08:16:22;14.93;;;8.98;;
47413;SDS011;33163;0.000;0.000;2023-02-15T08:18:51;13.35;;;9.57;;
47413;SDS011;33163;0.000;0.000;2023-02-15T08:21:19;13.27;;;9.27;;
47413;SDS011;33163;0.000;0.000;2023-02-15T08:23:46;14.13;;;8.80;;
47413;SDS011;33163;0.000;0.000;2023-02-15T08:26:13;12.68;;;8.77;;
47413;SDS011;33163;0.000;0.000;2023-02-15T08:28:42;12.80;;;8.23;;
47413;SDS011;33163;0.000;0.000;2023-02-15T08:31:09;13.30;;;8.52;;
47413;SDS011;33163;0.000;0.000;2023-02-15T08:33:39;11.93;;;8.77;;
47413;SDS011;33163;0.000;0.000;2023-02-15T08:36:07;14.68;;;9.25;;
47413;SDS011;33163;0.000;0.000;2023-02-15T08:38:36;12.43;;;8.88;;
47413;SDS011;33163;0.000;0.000;2023-02-15T08:41:11;14.20;;;8.68;;
47413;SDS011;33163;0.000;0.000;2023-02-15T08:43:39;12.50;;;9.32;;
47413;SDS011;33163;0.000;0.000;2023-02-15T08:46:06;13.40;;;8.60;;
47413;SDS011;33163;0.000;0.000;2023-02-15T08:48:34;15.70;;;9.93;;
47413;SDS011;33163;0.000;0.000;2023-02-15T08:51:05;14.73;;;9.48;;
47413;SDS011;33163;0.000;0.000;2023-02-15T08:53:35;13.15;;;10.18;;
47413;SDS011;33163;0.000;0.000;2023-02-15T08:56:02;14.88;;;9.23;;
47413;SDS011;33163;0.000;0.000;2023-02-15T08:58:29;14.43;;;8.50;;
47413;SDS011;33163;0.000;0.000;2023-02-15T09:00:56;13.75;;;9.20;;
47413;SDS011;33163;0.000;0.000;2023-02-15T09:03:23;14.23;;;9.45;;
47413;SDS011;33163;0.000;0.000;2023-02-15T09:05:53;14.40;;;8.20;;
47413;SDS011;33163;0.000;0.000;2023-02-15T09:08:24;13.43;;;8.52;;
47413;SDS011;33163;0.000;0.000;2023-02-15T09:10:51;16.45;;;9.32;;
47413;SDS011;33163;0.000;0.000;2023-02-15T09:13:18;13.70;;;8.85;;
47413;SDS011;33163;0.000;0.000;2023-02-15T09:15:45;14.05;;;9.20;;
47413;SDS011;33163;0.000;0.000;2023-02-15T09:18:12;13.48;;;8.95;;
47413;SDS011;33163;0.000;0.000;2023-02-15T09:20:42;13.48;;;9.27;;
47413;SDS011;33163;0.000;0.000;2023-02-15T09:23:09;13.57;;;9.25;;
47413;SDS011;33163;0.000;0.000;2023-02-15T09:25:37;16.23;;;10.10;;
47413;SDS011;33163;0.000;0.000;2023-02-15T09:28:04;16.10;;;9.18;;
47413;SDS011;33163;0.000;0.000;2023-02-15T09:30:31;15.00;;;10.32;;
47413;SDS011;33163;0.000;0.000;2023-02-15T09:32:57;16.23;;;10.73;;
47413;SDS011;33163;0.000;0.000;2023-02-15T09:35:24;18.23;;;10.25;;
47413;SDS011;33163;0.000;0.000;2023-02-15T09:37:51;19.60;;;10.88;;
47413;SDS011;33163;0.000;0.000;2023-02-15T09:40:17;17.90;;;10.57;;
47413;SDS011;33163;0.000;0.000;2023-02-15T09:43:02;13.50;;;9.60;;
47413;SDS011;33163;0.000;0.000;2023-02-15T09:45:50;18.60;;;11.27;;
47413;SDS011;33163;0.000;0.000;2023-02-15T09:54:31;16.30;;;11.07;;
47413;SDS011;33163;0.000;0.000;2023-02-15T09:57:07;17.65;;;11.48;;
47413;SDS011;33163;0.000;0.000;2023-02-15T09:59:41;15.88;;;10.10;;
47413;SDS011;33163;0.000;0.000;2023-02-15T10:02:20;15.10;;;9.95;;
47413;SDS011;33163;0.000;0.000;2023-02-15T10:04:57;15.60;;;10.60;;
47413;SDS011;33163;0.000;0.000;2023-02-15T10:07:43;19.58;;;11.45;;
47413;SDS011;33163;0.000;0.000;2023-02-15T10:10:38;14.85;;;10.25;;
47413;SDS011;33163;0.000;0.000;2023-02-15T10:13:15;15.52;;;9.88;;
47413;SDS011;33163;0.000;0.000;2023-02-15T10:15:56;18.05;;;11.30;;
47413;SDS011;33163;0.000;0.000;2023-02-15T10:18:38;18.02;;;10.52;;
47413;SDS011;33163;0.000;0.000;2023-02-15T10:21:16;19.90;;;11.80;;
47413;SDS011;33163;0.000;0.000;2023-02-15T10:24:01;15.20;;;10.20;;
47413;SDS011;33163;0.000;0.000;2023-02-15T10:26:37;18.08;;;10.85;;
47413;SDS011;33163;0.000;0.000;2023-02-15T10:29:12;13.35;;;9.88;;
47413;SDS011;33163;0.000;0.000;2023-02-15T10:31:55;17.85;;;10.65;;
47413;SDS011;33163;0.000;0.000;2023-02-15T10:34:31;18.58;;;11.52;;
47413;SDS011;33163;0.000;0.000;2023-02-15T10:37:12;17.98;;;11.18;;
47413;SDS011;33163;0.000;0.000;2023-02-15T10:40:00;16.60;;;10.35;;
47413;SDS011;33163;0.000;0.000;2023-02-15T10:42:36;17.30;;;11.27;;
47413;SDS011;33163;0.000;0.000;2023-02-15T10:45:20;17.42;;;11.18;;
47413;SDS011;33163;0.000;0.000;2023-02-15T10:48:02;17.52;;;10.27;;
47413;SDS011;33163;0.000;0.000;2023-02-15T10:50:48;16.40;;;10.30;;
47413;SDS011;33163;0.000;0.000;2023-02-15T10:53:21;18.67;;;11.07;;
47413;SDS011;33163;0.000;0.000;2023-02-15T10:56:12;17.33;;;10.85;;
47413;SDS011;33163;0.000;0.000;2023-02-15T10:58:49;12.75;;;9.82;;
47413;SDS011;33163;0.000;0.000;2023-02-15T11:01:30;17.73;;;11.60;;
47413;SDS011;33163;0.000;0.000;2023-02-15T11:04:08;14.45;;;9.38;;
47413;SDS011;33163;0.000;0.000;2023-02-15T11:06:58;16.17;;;10.32;;
47413;SDS011;33163;0.000;0.000;2023-02-15T11:09:33;16.02;;;10.13;;
47413;SDS011;33163;0.000;0.000;2023-02-15T11:12:07;15.02;;;10.07;;
47413;SDS011;33163;0.000;0.000;2023-02-15T11:14:39;19.05;;;10.10;;
47413;SDS011;33163;0.000;0.000;2023-02-15T11:17:11;15.88;;;10.20;;
47413;SDS011;33163;0.000;0.000;2023-02-15T11:19:42;16.98;;;9.70;;
47413;SDS011;33163;0.000;0.000;2023-02-15T11:22:17;16.88;;;10.20;;
47413;SDS011;33163;0.000;0.000;2023-02-15T11:24:44;17.20;;;10.38;;
47413;SDS011;33163;0.000;0.000;2023-02-15T11:27:17;14.50;;;10.23;;
47413;SDS011;33163;0.000;0.000;2023-02-15T11:29:49;14.95;;;10.52;;
47413;SDS011;33163;0.000;0.000;2023-02-15T11:32:21;13.23;;;9.50;;
47413;SDS011;33163;0.000;0.000;2023-02-15T11:34:53;14.10;;;9.95;;
47413;SDS011;33163;0.000;0.000;2023-02-15T11:37:28;17.50;;;11.88;;
47413;SDS011;33163;0.000;0.000;2023-02-15T11:40:02;17.05;;;9.85;;
47413;SDS011;33163;0.000;0.000;2023-02-15T11:42:38;15.75;;;9.40;;
47413;SDS011;33163;0.000;0.000;2023-02-15T11:45:07;16.00;;;9.48;;
47413;SDS011;33163;0.000;0.000;2023-02-15T11:47:47;18.17;;;10.35;;
47413;SDS011;33163;0.000;0.000;2023-02-15T11:50:17;14.68;;;9.68;;
47413;SDS011;33163;0.000;0.000;2023-02-15T11:52:47;14.35;;;9.65;;
47413;SDS011;33163;0.000;0.000;2023-02-15T11:55:15;12.75;;;9.48;;
47413;SDS011;33163;0.000;0.000;2023-02-15T11:57:47;12.15;;;9.10;;
47413;SDS011;33163;0.000;0.000;2023-02-15T12:00:23;15.75;;;10.23;;
47413;SDS011;33163;0.000;0.000;2023-02-15T12:03:01;16.80;;;9.02;;
47413;SDS011;33163;0.000;0.000;2023-02-15T12:05:35;16.67;;;9.57;;
47413;SDS011;33163;0.000;0.000;2023-02-15T12:08:09;13.95;;;9.32;;
47413;SDS011;33163;0.000;0.000;2023-02-15T12:10:42;14.60;;;10.65;;
47413;SDS011;33163;0.000;0.000;2023-02-15T12:13:18;14.77;;;9.00;;
47413;SDS011;33163;0.000;0.000;2023-02-15T12:15:47;13.13;;;9.30;;
47413;SDS011;33163;0.000;0.000;2023-02-15T12:18:20;17.15;;;9.60;;
47413;SDS011;33163;0.000;0.000;2023-02-15T12:20:58;17.75;;;9.55;;
47413;SDS011;33163;0.000;0.000;2023-02-15T12:23:28;17.45;;;9.93;;
47413;SDS011;33163;0.000;0.000;2023-02-15T12:25:55;13.48;;;9.10;;
47413;SDS011;33163;0.000;0.000;2023-02-15T12:28:26;12.98;;;8.98;;
47413;SDS011;33163;0.000;0.000;2023-02-15T12:30:58;13.52;;;8.80;;
47413;SDS011;33163;0.000;0.000;2023-02-15T12:33:27;13.43;;;8.80;;
47413;SDS011;33163;0.000;0.000;2023-02-15T12:35:59;14.75;;;8.57;;
47413;SDS011;33163;0.000;0.000;2023-02-15T12:38:29;15.18;;;9.20;;
47413;SDS011;33163;0.000;0.000;2023-02-15T12:40:57;15.73;;;9.80;;
47413;SDS011;33163;0.000;0.000;2023-02-15T12:43:31;14.50;;;9.48;;
47413;SDS011;33163;0.000;0.000;2023-02-15T12:46:19;14.43;;;9.13;;
47413;SDS011;33163;0.000;0.000;2023-02-15T12:48:51;14.35;;;9.50;;
47413;SDS011;33163;0.000;0.000;2023-02-15T12:51:37;16.00;;;9.75;;
47413;SDS011;33163;0.000;0.000;2023-02-15T12:54:15;14.40;;;9.13;;
47413;SDS011;33163;0.000;0.000;2023-02-15T12:56:43;12.48;;;8.38;;
47413;SDS011;33163;0.000;0.000;2023-02-15T12:59:12;14.02;;;9.13;;
47413;SDS011;33163;0.000;0.000;2023-02-15T13:01:41;15.10;;;10.07;;
47413;SDS011;33163;0.000;0.000;2023-02-15T13:04:14;14.95;;;9.75;;
47413;SDS011;33163;0.000;0.000;2023-02-15T13:06:48;15.45;;;10.43;;
47413;SDS011;33163;0.000;0.000;2023-02-15T13:09:17;19.65;;;9.93;;
47413;SDS011;33163;0.000;0.000;2023-02-15T13:11:46;14.52;;;8.52;;
47413;SDS011;33163;0.000;0.000;2023-02-15T13:14:16;15.93;;;9.40;;
47413;SDS011;33163;0.000;0.000;2023-02-15T13:16:44;15.30;;;9.75;;
47413;SDS011;33163;0.000;0.000;2023-02-15T13:19:14;14.15;;;9.45;;
47413;SDS011;33163;0.000;0.000;2023-02-15T13:21:43;12.93;;;9.57;;
47413;SDS011;33163;0.000;0.000;2023-02-15T13:24:15;17.48;;;11.18;;
47413;SDS011;33163;0.000;0.000;2023-02-15T13:26:46;16.40;;;9.70;;
47413;SDS011;33163;0.000;0.000;2023-02-15T13:29:15;13.63;;;9.27;;
47413;SDS011;33163;0.000;0.000;2023-02-15T13:31:47;15.18;;;10.13;;
47413;SDS011;33163;0.000;0.000;2023-02-15T13:34:19;12.98;;;9.52;;
47413;SDS011;33163;0.000;0.000;2023-02-15T13:36:51;12.85;;;9.32;;
47413;SDS011;33163;0.000;0.000;2023-02-15T13:39:27;15.35;;;9.93;;
47413;SDS011;33163;0.000;0.000;2023-02-15T13:42:02;14.68;;;9.23;;
47413;SDS011;33163;0.000;0.000;2023-02-15T13:44:51;16.42;;;9.85;;
47413;SDS011;33163;0.000;0.000;2023-02-15T13:47:30;17.08;;;10.00;;
47413;SDS011;33163;0.000;0.000;2023-02-15T13:50:07;13.60;;;9.10;;
47413;SDS011;33163;0.000;0.000;2023-02-15T13:52:47;17.67;;;10.30;;
47413;SDS011;33163;0.000;0.000;2023-02-15T13:55:25;15.95;;;8.75;;
47413;SDS011;33163;0.000;0.000;2023-02-15T14:01:00;14.93;;;9.10;;
47413;SDS011;33163;0.000;0.000;2023-02-15T14:03:44;13.95;;;9.65;;
47413;SDS011;33163;0.000;0.000;2023-02-15T14:06:52;15.63;;;9.32;;
47413;SDS011;33163;0.000;0.000;2023-02-15T14:09:36;15.95;;;9.55;;
47413;SDS011;33163;0.000;0.000;2023-02-15T14:12:18;12.90;;;8.23;;
47413;SDS011;33163;0.000;0.000;2023-02-15T14:17:44;19.80;;;9.40;;
47413;SDS011;33163;0.000;0.000;2023-02-15T14:20:20;14.27;;;9.80;;
47413;SDS011;33163;0.000;0.000;2023-02-15T14:22:53;14.98;;;9.73;;
47413;SDS011;33163;0.000;0.000;2023-02-15T14:25:33;15.73;;;10.90;;
47413;SDS011;33163;0.000;0.000;2023-02-15T14:30:37;15.77;;;9.85;;
47413;SDS011;33163;0.000;0.000;2023-02-15T14:33:05;18.27;;;10.63;;
47413;SDS011;33163;0.000;0.000;2023-02-15T14:35:34;18.88;;;11.23;;
47413;SDS011;33163;0.000;0.000;2023-02-15T14:38:04;14.93;;;10.20;;
47413;SDS011;33163;0.000;0.000;2023-02-15T14:40:42;18.05;;;11.32;;
47413;SDS011;33163;0.000;0.000;2023-02-15T14:43:30;19.73;;;12.10;;
47413;SDS011;33163;0.000;0.000;2023-02-15T14:46:07;21.50;;;11.82;;
47413;SDS011;33163;0.000;0.000;2023-02-15T14:48:42;24.08;;;10.90;;
47413;SDS011;33163;0.000;0.000;2023-02-15T14:54:52;17.17;;;11.15;;
47413;SDS011;33163;0.000;0.000;2023-02-15T14:57:30;18.63;;;10.90;;
47413;SDS011;33163;0.000;0.000;2023-02-15T14:59:59;18.25;;;10.73;;
47413;SDS011;33163;0.000;0.000;2023-02-15T15:02:39;22.75;;;10.77;;
47413;SDS011;33163;0.000;0.000;2023-02-15T15:05:14;15.73;;;10.63;;
47413;SDS011;33163;0.000;0.000;2023-02-15T15:07:45;16.08;;;10.95;;
47413;SDS011;33163;0.000;0.000;2023-02-15T15:10:34;17.15;;;10.27;;
47413;SDS011;33163;0.000;0.000;2023-02-15T15:19:09;22.40;;;11.07;;
47413;SDS011;33163;0.000;0.000;2023-02-15T15:21:55;14.90;;;10.30;;
47413;SDS011;33163;0.000;0.000;2023-02-15T15:24:47;17.17;;;10.77;;
47413;SDS011;33163;0.000;0.000;2023-02-15T15:36:36;24.98;;;11.90;;
47413;SDS011;33163;0.000;0.000;2023-02-15T15:39:28;19.55;;;10.15;;
47413;SDS011;33163;0.000;0.000;2023-02-15T15:42:30;16.17;;;9.40;;
47413;SDS011;33163;0.000;0.000;2023-02-15T15:45:22;15.25;;;10.50;;
47413;SDS011;33163;0.000;0.000;2023-02-15T15:48:13;13.35;;;9.98;;
47413;SDS011;33163;0.000;0.000;2023-02-15T15:51:00;15.48;;;10.38;;
47413;SDS011;33163;0.000;0.000;2023-02-15T15:53:32;22.80;;;10.98;;